Grand-Sault, Canada
Current Conditions -  °F | °C
As of 10:03 AM on Monday 24 Nov 2014 (Local Time) from KCAR Reporting Station
Overcast Overcast  
Wind Chill: 34°   Ceiling: 900
Heat Index: 41°   Visibility: 10mi
Dew Point: 38°   Wind: 12mph
Humidity: 89%   Direction: 160°SSE
Pressure: 29.93"   Gusts: NA
Location:  47.05°N, 67.73°W
Report Text: KCAR 241403Z AUTO 16010KT 10SM OVC009 05/03 A2993 RMK AO2 T00500033
Loading
Personal Weather Stations






























Interactive Weather Map New forecast layout! Learn more

10-Day Weather Forecast

Advertisements
Track Severe Weather on mobile